sensor_id;sensor_type;location;lat;lon;timestamp;P1;durP1;ratioP1;P2;durP2;ratioP2
11935;SDS011;6027;48.576;9.180;2022-11-15T00:00:27;3.58;;;3.15;;
11935;SDS011;6027;48.576;9.180;2022-11-15T00:02:53;3.42;;;3.03;;
11935;SDS011;6027;48.576;9.180;2022-11-15T00:05:19;4.32;;;3.63;;
11935;SDS011;6027;48.576;9.180;2022-11-15T00:07:44;5.32;;;3.42;;
11935;SDS011;6027;48.576;9.180;2022-11-15T00:10:10;6.40;;;3.90;;
11935;SDS011;6027;48.576;9.180;2022-11-15T00:12:35;5.97;;;4.18;;
11935;SDS011;6027;48.576;9.180;2022-11-15T00:15:01;4.47;;;3.67;;
11935;SDS011;6027;48.576;9.180;2022-11-15T00:17:27;5.95;;;3.50;;
11935;SDS011;6027;48.576;9.180;2022-11-15T00:19:52;6.10;;;3.70;;
11935;SDS011;6027;48.576;9.180;2022-11-15T00:22:17;7.32;;;4.00;;
11935;SDS011;6027;48.576;9.180;2022-11-15T00:24:43;3.88;;;3.28;;
11935;SDS011;6027;48.576;9.180;2022-11-15T00:27:08;3.67;;;2.97;;
11935;SDS011;6027;48.576;9.180;2022-11-15T00:29:34;3.75;;;3.13;;
11935;SDS011;6027;48.576;9.180;2022-11-15T00:31:59;4.28;;;3.35;;
11935;SDS011;6027;48.576;9.180;2022-11-15T00:34:24;5.28;;;3.20;;
11935;SDS011;6027;48.576;9.180;2022-11-15T00:36:50;3.70;;;2.60;;
11935;SDS011;6027;48.576;9.180;2022-11-15T00:39:15;3.95;;;3.20;;
11935;SDS011;6027;48.576;9.180;2022-11-15T00:41:41;3.20;;;2.90;;
11935;SDS011;6027;48.576;9.180;2022-11-15T00:44:07;3.83;;;3.00;;
11935;SDS011;6027;48.576;9.180;2022-11-15T00:46:32;3.95;;;2.60;;
11935;SDS011;6027;48.576;9.180;2022-11-15T00:48:58;4.27;;;3.50;;
11935;SDS011;6027;48.576;9.180;2022-11-15T00:51:23;4.60;;;2.88;;
11935;SDS011;6027;48.576;9.180;2022-11-15T00:53:49;3.33;;;2.60;;
11935;SDS011;6027;48.576;9.180;2022-11-15T00:56:14;2.90;;;2.70;;
11935;SDS011;6027;48.576;9.180;2022-11-15T00:58:40;6.53;;;3.05;;
11935;SDS011;6027;48.576;9.180;2022-11-15T01:01:06;3.63;;;2.38;;
11935;SDS011;6027;48.576;9.180;2022-11-15T01:03:34;4.57;;;2.40;;
11935;SDS011;6027;48.576;9.180;2022-11-15T01:06:00;3.47;;;2.50;;
11935;SDS011;6027;48.576;9.180;2022-11-15T01:08:26;3.33;;;2.33;;
11935;SDS011;6027;48.576;9.180;2022-11-15T01:10:51;3.97;;;3.17;;
11935;SDS011;6027;48.576;9.180;2022-11-15T01:13:16;4.30;;;3.60;;
11935;SDS011;6027;48.576;9.180;2022-11-15T01:15:42;4.43;;;3.22;;
11935;SDS011;6027;48.576;9.180;2022-11-15T01:18:08;3.53;;;3.22;;
11935;SDS011;6027;48.576;9.180;2022-11-15T01:20:34;4.57;;;3.97;;
11935;SDS011;6027;48.576;9.180;2022-11-15T01:22:59;5.20;;;3.50;;
11935;SDS011;6027;48.576;9.180;2022-11-15T01:25:24;4.13;;;3.30;;
11935;SDS011;6027;48.576;9.180;2022-11-15T01:27:50;6.53;;;3.50;;
11935;SDS011;6027;48.576;9.180;2022-11-15T01:30:15;4.18;;;3.20;;
11935;SDS011;6027;48.576;9.180;2022-11-15T01:32:41;3.40;;;3.03;;
11935;SDS011;6027;48.576;9.180;2022-11-15T01:35:06;4.07;;;2.83;;
11935;SDS011;6027;48.576;9.180;2022-11-15T01:37:32;5.00;;;2.87;;
11935;SDS011;6027;48.576;9.180;2022-11-15T01:39:57;3.77;;;2.93;;
11935;SDS011;6027;48.576;9.180;2022-11-15T01:42:23;3.43;;;3.00;;
11935;SDS011;6027;48.576;9.180;2022-11-15T01:44:51;3.27;;;2.83;;
11935;SDS011;6027;48.576;9.180;2022-11-15T01:47:23;3.10;;;2.77;;
11935;SDS011;6027;48.576;9.180;2022-11-15T01:49:55;2.93;;;2.60;;
11935;SDS011;6027;48.576;9.180;2022-11-15T01:52:22;4.90;;;3.10;;
11935;SDS011;6027;48.576;9.180;2022-11-15T01:54:53;3.03;;;2.60;;
11935;SDS011;6027;48.576;9.180;2022-11-15T01:57:32;3.20;;;2.80;;
11935;SDS011;6027;48.576;9.180;2022-11-15T01:59:59;4.55;;;2.85;;
11935;SDS011;6027;48.576;9.180;2022-11-15T02:02:26;2.77;;;2.57;;
11935;SDS011;6027;48.576;9.180;2022-11-15T02:04:52;2.87;;;2.50;;
11935;SDS011;6027;48.576;9.180;2022-11-15T02:07:18;3.63;;;2.73;;
11935;SDS011;6027;48.576;9.180;2022-11-15T02:09:45;2.60;;;2.40;;
11935;SDS011;6027;48.576;9.180;2022-11-15T02:12:12;4.40;;;2.63;;
11935;SDS011;6027;48.576;9.180;2022-11-15T02:14:41;5.17;;;2.70;;
11935;SDS011;6027;48.576;9.180;2022-11-15T02:28:23;2.78;;;2.45;;
11935;SDS011;6027;48.576;9.180;2022-11-15T02:31:10;2.92;;;2.38;;
11935;SDS011;6027;48.576;9.180;2022-11-15T02:34:29;3.60;;;2.70;;
11935;SDS011;6027;48.576;9.180;2022-11-15T02:42:24;3.00;;;2.60;;
11935;SDS011;6027;48.576;9.180;2022-11-15T02:45:11;3.10;;;2.80;;
11935;SDS011;6027;48.576;9.180;2022-11-15T02:47:50;3.00;;;2.40;;
11935;SDS011;6027;48.576;9.180;2022-11-15T02:50:20;4.70;;;3.00;;
11935;SDS011;6027;48.576;9.180;2022-11-15T02:52:49;4.07;;;2.60;;
11935;SDS011;6027;48.576;9.180;2022-11-15T02:55:28;2.97;;;2.50;;
11935;SDS011;6027;48.576;9.180;2022-11-15T02:58:14;2.60;;;2.40;;
11935;SDS011;6027;48.576;9.180;2022-11-15T03:04:04;3.97;;;2.80;;
11935;SDS011;6027;48.576;9.180;2022-11-15T03:06:49;3.58;;;2.53;;
11935;SDS011;6027;48.576;9.180;2022-11-15T03:09:28;2.50;;;2.10;;
11935;SDS011;6027;48.576;9.180;2022-11-15T03:12:07;3.00;;;2.47;;
11935;SDS011;6027;48.576;9.180;2022-11-15T03:14:47;3.63;;;2.90;;
11935;SDS011;6027;48.576;9.180;2022-11-15T03:17:33;3.70;;;2.37;;
11935;SDS011;6027;48.576;9.180;2022-11-15T03:20:08;2.87;;;2.63;;
11935;SDS011;6027;48.576;9.180;2022-11-15T03:22:37;4.80;;;2.90;;
11935;SDS011;6027;48.576;9.180;2022-11-15T03:25:08;3.03;;;2.73;;
11935;SDS011;6027;48.576;9.180;2022-11-15T03:27:40;3.30;;;3.00;;
11935;SDS011;6027;48.576;9.180;2022-11-15T03:30:10;3.47;;;2.90;;
11935;SDS011;6027;48.576;9.180;2022-11-15T03:32:44;3.70;;;2.80;;
11935;SDS011;6027;48.576;9.180;2022-11-15T03:35:23;2.70;;;2.23;;
11935;SDS011;6027;48.576;9.180;2022-11-15T03:38:07;3.20;;;2.90;;
11935;SDS011;6027;48.576;9.180;2022-11-15T03:43:15;3.17;;;2.60;;
11935;SDS011;6027;48.576;9.180;2022-11-15T03:46:05;3.87;;;2.93;;
11935;SDS011;6027;48.576;9.180;2022-11-15T03:48:59;3.27;;;2.97;;
11935;SDS011;6027;48.576;9.180;2022-11-15T03:51:28;3.57;;;3.10;;
11935;SDS011;6027;48.576;9.180;2022-11-15T03:53:54;3.70;;;3.30;;
11935;SDS011;6027;48.576;9.180;2022-11-15T03:56:20;3.50;;;2.83;;
11935;SDS011;6027;48.576;9.180;2022-11-15T03:58:45;3.27;;;2.77;;
11935;SDS011;6027;48.576;9.180;2022-11-15T04:01:10;3.43;;;3.13;;
11935;SDS011;6027;48.576;9.180;2022-11-15T04:03:36;6.03;;;3.10;;
11935;SDS011;6027;48.576;9.180;2022-11-15T04:06:01;3.03;;;2.70;;
11935;SDS011;6027;48.576;9.180;2022-11-15T04:08:27;3.30;;;3.00;;
11935;SDS011;6027;48.576;9.180;2022-11-15T04:10:52;3.33;;;3.03;;
11935;SDS011;6027;48.576;9.180;2022-11-15T04:13:18;3.40;;;3.03;;
11935;SDS011;6027;48.576;9.180;2022-11-15T04:15:43;4.57;;;2.87;;
11935;SDS011;6027;48.576;9.180;2022-11-15T04:18:09;3.20;;;2.90;;
11935;SDS011;6027;48.576;9.180;2022-11-15T04:20:34;4.30;;;3.33;;
11935;SDS011;6027;48.576;9.180;2022-11-15T04:23:19;3.90;;;3.27;;
11935;SDS011;6027;48.576;9.180;2022-11-15T04:28:36;4.07;;;3.03;;
11935;SDS011;6027;48.576;9.180;2022-11-15T04:31:26;3.83;;;3.00;;
11935;SDS011;6027;48.576;9.180;2022-11-15T04:33:52;4.67;;;3.33;;
11935;SDS011;6027;48.576;9.180;2022-11-15T04:36:18;4.73;;;3.20;;
11935;SDS011;6027;48.576;9.180;2022-11-15T04:39:03;4.90;;;3.00;;
11935;SDS011;6027;48.576;9.180;2022-11-15T04:41:29;4.30;;;3.23;;
11935;SDS011;6027;48.576;9.180;2022-11-15T04:43:55;5.93;;;3.43;;
11935;SDS011;6027;48.576;9.180;2022-11-15T04:46:21;5.10;;;3.73;;
11935;SDS011;6027;48.576;9.180;2022-11-15T04:48:47;6.47;;;3.80;;
11935;SDS011;6027;48.576;9.180;2022-11-15T04:51:12;4.57;;;3.20;;
11935;SDS011;6027;48.576;9.180;2022-11-15T04:53:37;4.33;;;3.23;;
11935;SDS011;6027;48.576;9.180;2022-11-15T04:56:03;4.00;;;3.60;;
11935;SDS011;6027;48.576;9.180;2022-11-15T04:58:29;4.22;;;3.83;;
11935;SDS011;6027;48.576;9.180;2022-11-15T05:00:54;4.83;;;3.60;;
11935;SDS011;6027;48.576;9.180;2022-11-15T05:03:19;4.13;;;3.50;;
11935;SDS011;6027;48.576;9.180;2022-11-15T05:06:03;3.83;;;3.43;;
11935;SDS011;6027;48.576;9.180;2022-11-15T05:08:29;4.00;;;3.60;;
11935;SDS011;6027;48.576;9.180;2022-11-15T05:10:54;4.73;;;3.73;;
11935;SDS011;6027;48.576;9.180;2022-11-15T05:13:20;3.87;;;3.47;;
11935;SDS011;6027;48.576;9.180;2022-11-15T05:15:46;4.40;;;3.90;;
11935;SDS011;6027;48.576;9.180;2022-11-15T05:18:12;4.37;;;3.97;;
11935;SDS011;6027;48.576;9.180;2022-11-15T05:20:37;3.93;;;3.60;;
11935;SDS011;6027;48.576;9.180;2022-11-15T05:23:02;4.33;;;3.50;;
11935;SDS011;6027;48.576;9.180;2022-11-15T05:25:28;4.60;;;3.90;;
11935;SDS011;6027;48.576;9.180;2022-11-15T05:27:53;5.03;;;4.20;;
11935;SDS011;6027;48.576;9.180;2022-11-15T05:30:19;5.27;;;4.23;;
11935;SDS011;6027;48.576;9.180;2022-11-15T05:32:44;6.50;;;5.10;;
11935;SDS011;6027;48.576;9.180;2022-11-15T05:35:12;5.63;;;5.07;;
11935;SDS011;6027;48.576;9.180;2022-11-15T05:37:44;5.50;;;4.90;;
11935;SDS011;6027;48.576;9.180;2022-11-15T05:40:10;5.30;;;4.50;;
11935;SDS011;6027;48.576;9.180;2022-11-15T05:42:35;7.10;;;5.27;;
11935;SDS011;6027;48.576;9.180;2022-11-15T05:45:01;8.13;;;4.97;;
11935;SDS011;6027;48.576;9.180;2022-11-15T05:47:33;5.77;;;4.83;;
11935;SDS011;6027;48.576;9.180;2022-11-15T05:50:02;5.60;;;5.10;;
11935;SDS011;6027;48.576;9.180;2022-11-15T05:52:28;6.00;;;5.37;;
11935;SDS011;6027;48.576;9.180;2022-11-15T05:54:56;6.37;;;5.47;;
11935;SDS011;6027;48.576;9.180;2022-11-15T05:57:23;6.30;;;5.53;;
11935;SDS011;6027;48.576;9.180;2022-11-15T05:59:49;9.10;;;5.87;;
11935;SDS011;6027;48.576;9.180;2022-11-15T06:02:15;8.30;;;6.10;;
11935;SDS011;6027;48.576;9.180;2022-11-15T06:04:40;7.97;;;5.53;;
11935;SDS011;6027;48.576;9.180;2022-11-15T06:07:06;5.87;;;5.27;;
11935;SDS011;6027;48.576;9.180;2022-11-15T06:09:31;5.20;;;4.70;;
11935;SDS011;6027;48.576;9.180;2022-11-15T06:11:56;6.20;;;5.60;;
11935;SDS011;6027;48.576;9.180;2022-11-15T06:14:22;6.27;;;5.17;;
11935;SDS011;6027;48.576;9.180;2022-11-15T06:16:48;8.63;;;5.07;;
11935;SDS011;6027;48.576;9.180;2022-11-15T06:19:13;7.47;;;5.50;;
11935;SDS011;6027;48.576;9.180;2022-11-15T06:21:39;6.10;;;5.47;;
11935;SDS011;6027;48.576;9.180;2022-11-15T06:24:04;6.93;;;5.20;;
11935;SDS011;6027;48.576;9.180;2022-11-15T06:26:30;7.43;;;5.37;;
11935;SDS011;6027;48.576;9.180;2022-11-15T06:28:56;9.83;;;6.30;;
11935;SDS011;6027;48.576;9.180;2022-11-15T06:31:22;6.83;;;5.50;;
11935;SDS011;6027;48.576;9.180;2022-11-15T06:33:47;7.40;;;6.57;;
11935;SDS011;6027;48.576;9.180;2022-11-15T06:36:14;9.23;;;7.13;;
11935;SDS011;6027;48.576;9.180;2022-11-15T06:38:42;7.87;;;6.93;;
11935;SDS011;6027;48.576;9.180;2022-11-15T06:41:10;8.07;;;6.37;;
11935;SDS011;6027;48.576;9.180;2022-11-15T06:43:37;7.77;;;5.80;;
11935;SDS011;6027;48.576;9.180;2022-11-15T06:46:03;6.27;;;5.67;;
11935;SDS011;6027;48.576;9.180;2022-11-15T06:48:30;6.23;;;5.63;;
11935;SDS011;6027;48.576;9.180;2022-11-15T06:50:57;6.57;;;4.60;;
11935;SDS011;6027;48.576;9.180;2022-11-15T06:53:24;6.53;;;4.73;;
11935;SDS011;6027;48.576;9.180;2022-11-15T06:55:51;7.90;;;6.30;;
11935;SDS011;6027;48.576;9.180;2022-11-15T06:58:17;7.27;;;6.47;;
11935;SDS011;6027;48.576;9.180;2022-11-15T07:00:42;8.37;;;7.53;;
11935;SDS011;6027;48.576;9.180;2022-11-15T07:03:08;10.35;;;7.85;;
11935;SDS011;6027;48.576;9.180;2022-11-15T07:05:34;5.00;;;4.50;;
11935;SDS011;6027;48.576;9.180;2022-11-15T07:08:00;6.10;;;5.17;;
11935;SDS011;6027;48.576;9.180;2022-11-15T07:10:26;6.23;;;4.90;;
11935;SDS011;6027;48.576;9.180;2022-11-15T07:12:52;5.77;;;4.70;;
11935;SDS011;6027;48.576;9.180;2022-11-15T07:15:19;8.43;;;4.90;;
11935;SDS011;6027;48.576;9.180;2022-11-15T07:17:46;5.70;;;5.10;;
11935;SDS011;6027;48.576;9.180;2022-11-15T07:20:12;7.77;;;5.10;;
11935;SDS011;6027;48.576;9.180;2022-11-15T07:23:08;7.73;;;5.80;;
11935;SDS011;6027;48.576;9.180;2022-11-15T07:25:33;8.50;;;5.32;;
11935;SDS011;6027;48.576;9.180;2022-11-15T07:27:59;9.65;;;5.35;;
11935;SDS011;6027;48.576;9.180;2022-11-15T07:30:25;6.00;;;4.40;;
11935;SDS011;6027;48.576;9.180;2022-11-15T07:32:55;6.60;;;4.47;;
11935;SDS011;6027;48.576;9.180;2022-11-15T07:35:22;5.47;;;4.03;;
11935;SDS011;6027;48.576;9.180;2022-11-15T07:37:55;5.13;;;4.03;;
11935;SDS011;6027;48.576;9.180;2022-11-15T07:40:25;4.47;;;4.07;;
11935;SDS011;6027;48.576;9.180;2022-11-15T07:42:52;4.28;;;3.85;;
11935;SDS011;6027;48.576;9.180;2022-11-15T07:45:18;6.30;;;4.07;;
11935;SDS011;6027;48.576;9.180;2022-11-15T07:47:45;4.93;;;3.75;;
11935;SDS011;6027;48.576;9.180;2022-11-15T07:50:11;5.30;;;3.90;;
11935;SDS011;6027;48.576;9.180;2022-11-15T07:52:37;6.67;;;3.73;;
11935;SDS011;6027;48.576;9.180;2022-11-15T07:55:02;5.53;;;4.30;;
11935;SDS011;6027;48.576;9.180;2022-11-15T07:57:29;5.73;;;4.00;;
11935;SDS011;6027;48.576;9.180;2022-11-15T07:59:55;5.63;;;5.13;;
11935;SDS011;6027;48.576;9.180;2022-11-15T08:02:20;6.45;;;5.75;;
11935;SDS011;6027;48.576;9.180;2022-11-15T08:04:46;5.32;;;4.65;;
11935;SDS011;6027;48.576;9.180;2022-11-15T08:07:16;4.50;;;3.65;;
11935;SDS011;6027;48.576;9.180;2022-11-15T08:09:42;5.30;;;3.45;;
11935;SDS011;6027;48.576;9.180;2022-11-15T08:12:07;3.90;;;3.33;;
11935;SDS011;6027;48.576;9.180;2022-11-15T08:14:33;4.72;;;3.70;;
11935;SDS011;6027;48.576;9.180;2022-11-15T08:16:59;5.55;;;3.42;;
11935;SDS011;6027;48.576;9.180;2022-11-15T08:19:25;4.60;;;3.50;;
11935;SDS011;6027;48.576;9.180;2022-11-15T08:21:50;4.55;;;3.40;;
11935;SDS011;6027;48.576;9.180;2022-11-15T08:24:16;5.13;;;3.00;;
11935;SDS011;6027;48.576;9.180;2022-11-15T08:26:41;4.93;;;3.80;;
11935;SDS011;6027;48.576;9.180;2022-11-15T08:29:07;3.95;;;3.13;;
11935;SDS011;6027;48.576;9.180;2022-11-15T08:31:34;3.92;;;3.47;;
11935;SDS011;6027;48.576;9.180;2022-11-15T08:34:01;5.60;;;3.40;;
11935;SDS011;6027;48.576;9.180;2022-11-15T08:36:27;4.13;;;3.60;;
11935;SDS011;6027;48.576;9.180;2022-11-15T08:38:53;6.10;;;3.80;;
11935;SDS011;6027;48.576;9.180;2022-11-15T08:41:24;5.50;;;3.67;;
11935;SDS011;6027;48.576;9.180;2022-11-15T08:43:53;5.22;;;3.90;;
11935;SDS011;6027;48.576;9.180;2022-11-15T08:46:19;6.55;;;4.32;;
11935;SDS011;6027;48.576;9.180;2022-11-15T08:48:44;4.70;;;3.63;;
11935;SDS011;6027;48.576;9.180;2022-11-15T08:51:10;8.55;;;4.32;;
11935;SDS011;6027;48.576;9.180;2022-11-15T08:53:36;6.53;;;3.95;;
11935;SDS011;6027;48.576;9.180;2022-11-15T08:56:01;8.98;;;6.88;;
11935;SDS011;6027;48.576;9.180;2022-11-15T08:58:27;27.63;;;21.92;;
11935;SDS011;6027;48.576;9.180;2022-11-15T09:00:53;9.23;;;7.70;;
11935;SDS011;6027;48.576;9.180;2022-11-15T09:03:19;6.78;;;5.60;;
11935;SDS011;6027;48.576;9.180;2022-11-15T09:05:44;5.35;;;3.90;;
11935;SDS011;6027;48.576;9.180;2022-11-15T09:08:10;5.22;;;3.70;;
11935;SDS011;6027;48.576;9.180;2022-11-15T09:10:36;4.82;;;3.65;;
11935;SDS011;6027;48.576;9.180;2022-11-15T09:13:01;7.22;;;4.43;;
11935;SDS011;6027;48.576;9.180;2022-11-15T09:15:27;5.97;;;5.25;;
11935;SDS011;6027;48.576;9.180;2022-11-15T09:17:53;6.88;;;4.88;;
11935;SDS011;6027;48.576;9.180;2022-11-15T09:20:18;6.93;;;6.22;;
11935;SDS011;6027;48.576;9.180;2022-11-15T09:22:43;8.98;;;5.80;;
11935;SDS011;6027;48.576;9.180;2022-11-15T09:25:09;5.22;;;3.90;;
11935;SDS011;6027;48.576;9.180;2022-11-15T09:27:34;6.97;;;4.13;;
11935;SDS011;6027;48.576;9.180;2022-11-15T09:30:00;5.63;;;3.60;;
11935;SDS011;6027;48.576;9.180;2022-11-15T09:32:28;4.72;;;3.53;;
11935;SDS011;6027;48.576;9.180;2022-11-15T09:34:55;4.43;;;3.65;;
11935;SDS011;6027;48.576;9.180;2022-11-15T09:37:20;6.05;;;4.75;;
11935;SDS011;6027;48.576;9.180;2022-11-15T09:39:46;7.63;;;5.10;;
11935;SDS011;6027;48.576;9.180;2022-11-15T09:42:23;8.02;;;5.05;;
11935;SDS011;6027;48.576;9.180;2022-11-15T09:50:42;7.20;;;5.30;;
11935;SDS011;6027;48.576;9.180;2022-11-15T09:53:13;8.07;;;5.57;;
11935;SDS011;6027;48.576;9.180;2022-11-15T09:55:54;4.78;;;4.25;;
11935;SDS011;6027;48.576;9.180;2022-11-15T10:01:19;6.80;;;3.50;;
11935;SDS011;6027;48.576;9.180;2022-11-15T10:04:11;6.93;;;4.60;;
11935;SDS011;6027;48.576;9.180;2022-11-15T10:06:40;6.53;;;4.80;;
11935;SDS011;6027;48.576;9.180;2022-11-15T10:09:15;6.10;;;3.42;;
11935;SDS011;6027;48.576;9.180;2022-11-15T10:11:46;4.88;;;3.33;;
11935;SDS011;6027;48.576;9.180;2022-11-15T10:24:59;5.90;;;3.13;;
11935;SDS011;6027;48.576;9.180;2022-11-15T10:27:36;5.72;;;2.58;;
11935;SDS011;6027;48.576;9.180;2022-11-15T10:30:02;5.78;;;2.50;;
11935;SDS011;6027;48.576;9.180;2022-11-15T10:32:35;4.80;;;2.55;;
11935;SDS011;6027;48.576;9.180;2022-11-15T10:35:01;3.80;;;2.60;;
11935;SDS011;6027;48.576;9.180;2022-11-15T10:37:42;4.55;;;2.65;;
11935;SDS011;6027;48.576;9.180;2022-11-15T10:42:48;4.47;;;2.65;;
11935;SDS011;6027;48.576;9.180;2022-11-15T10:45:31;5.05;;;2.33;;
11935;SDS011;6027;48.576;9.180;2022-11-15T10:48:40;9.05;;;3.17;;
11935;SDS011;6027;48.576;9.180;2022-11-15T10:50:48;4.53;;;3.13;;
11935;SDS011;6027;48.576;9.180;2022-11-15T10:53:25;8.20;;;3.45;;
11935;SDS011;6027;48.576;9.180;2022-11-15T10:56:07;8.70;;;6.15;;
11935;SDS011;6027;48.576;9.180;2022-11-15T10:58:42;5.43;;;3.35;;
11935;SDS011;6027;48.576;9.180;2022-11-15T11:01:19;3.92;;;2.63;;
11935;SDS011;6027;48.576;9.180;2022-11-15T11:06:30;4.10;;;3.20;;
11935;SDS011;6027;48.576;9.180;2022-11-15T11:09:02;6.50;;;4.07;;
11935;SDS011;6027;48.576;9.180;2022-11-15T11:11:48;6.80;;;4.65;;
11935;SDS011;6027;48.576;9.180;2022-11-15T11:14:21;11.13;;;4.63;;
11935;SDS011;6027;48.576;9.180;2022-11-15T11:16:53;6.18;;;3.90;;
11935;SDS011;6027;48.576;9.180;2022-11-15T11:49:25;6.45;;;3.90;;
11935;SDS011;6027;48.576;9.180;2022-11-15T11:54:32;5.35;;;3.60;;
11935;SDS011;6027;48.576;9.180;2022-11-15T11:57:04;6.40;;;4.03;;
11935;SDS011;6027;48.576;9.180;2022-11-15T11:59:42;5.13;;;3.40;;
11935;SDS011;6027;48.576;9.180;2022-11-15T12:02:27;5.50;;;3.85;;
11935;SDS011;6027;48.576;9.180;2022-11-15T12:05:00;5.65;;;4.05;;
11935;SDS011;6027;48.576;9.180;2022-11-15T12:07:36;13.00;;;4.35;;
11935;SDS011;6027;48.576;9.180;2022-11-15T12:12:38;3.45;;;2.65;;
11935;SDS011;6027;48.576;9.180;2022-11-15T12:17:36;6.45;;;2.60;;
11935;SDS011;6027;48.576;9.180;2022-11-15T12:20:27;3.92;;;2.47;;
11935;SDS011;6027;48.576;9.180;2022-11-15T12:27:56;6.68;;;2.80;;
11935;SDS011;6027;48.576;9.180;2022-11-15T12:30:29;4.95;;;3.05;;
11935;SDS011;6027;48.576;9.180;2022-11-15T12:33:17;4.03;;;2.72;;
11935;SDS011;6027;48.576;9.180;2022-11-15T12:36:44;3.72;;;2.90;;
11935;SDS011;6027;48.576;9.180;2022-11-15T12:38:52;4.15;;;2.88;;
11935;SDS011;6027;48.576;9.180;2022-11-15T12:41:25;3.42;;;2.85;;
11935;SDS011;6027;48.576;9.180;2022-11-15T12:43:53;10.25;;;3.20;;
11935;SDS011;6027;48.576;9.180;2022-11-15T12:46:21;5.88;;;2.80;;
11935;SDS011;6027;48.576;9.180;2022-11-15T12:49:09;6.32;;;2.80;;
11935;SDS011;6027;48.576;9.180;2022-11-15T13:04:51;3.75;;;2.58;;
11935;SDS011;6027;48.576;9.180;2022-11-15T13:10:33;2.60;;;2.33;;
11935;SDS011;6027;48.576;9.180;2022-11-15T13:13:02;2.92;;;2.35;;
11935;SDS011;6027;48.576;9.180;2022-11-15T13:15:44;3.70;;;2.60;;
11935;SDS011;6027;48.576;9.180;2022-11-15T13:18:29;4.53;;;3.42;;
11935;SDS011;6027;48.576;9.180;2022-11-15T13:21:00;6.95;;;4.22;;
11935;SDS011;6027;48.576;9.180;2022-11-15T13:23:51;6.18;;;4.97;;
11935;SDS011;6027;48.576;9.180;2022-11-15T13:26:17;3.72;;;2.40;;
11935;SDS011;6027;48.576;9.180;2022-11-15T13:28:46;3.60;;;2.65;;
11935;SDS011;6027;48.576;9.180;2022-11-15T13:33:59;3.15;;;2.70;;
11935;SDS011;6027;48.576;9.180;2022-11-15T13:36:29;3.95;;;3.08;;
11935;SDS011;6027;48.576;9.180;2022-11-15T13:39:04;6.43;;;3.55;;
11935;SDS011;6027;48.576;9.180;2022-11-15T13:41:50;5.25;;;3.70;;
11935;SDS011;6027;48.576;9.180;2022-11-15T13:44:27;7.10;;;3.65;;
11935;SDS011;6027;48.576;9.180;2022-11-15T13:47:02;5.25;;;2.97;;
11935;SDS011;6027;48.576;9.180;2022-11-15T13:49:32;4.38;;;2.47;;
11935;SDS011;6027;48.576;9.180;2022-11-15T13:51:59;5.85;;;2.70;;
11935;SDS011;6027;48.576;9.180;2022-11-15T13:54:33;4.15;;;2.90;;
11935;SDS011;6027;48.576;9.180;2022-11-15T13:57:11;3.13;;;2.72;;
11935;SDS011;6027;48.576;9.180;2022-11-15T14:00:27;5.90;;;3.58;;
11935;SDS011;6027;48.576;9.180;2022-11-15T14:02:53;4.97;;;3.53;;
11935;SDS011;6027;48.576;9.180;2022-11-15T14:05:21;5.30;;;3.35;;
11935;SDS011;6027;48.576;9.180;2022-11-15T14:07:57;7.70;;;5.70;;
11935;SDS011;6027;48.576;9.180;2022-11-15T14:10:39;7.13;;;3.47;;
11935;SDS011;6027;48.576;9.180;2022-11-15T14:13:10;3.70;;;3.40;;
11935;SDS011;6027;48.576;9.180;2022-11-15T14:15:54;8.10;;;5.78;;
11935;SDS011;6027;48.576;9.180;2022-11-15T14:18:47;7.78;;;5.35;;
11935;SDS011;6027;48.576;9.180;2022-11-15T14:21:15;10.65;;;7.20;;
11935;SDS011;6027;48.576;9.180;2022-11-15T14:23:41;8.88;;;6.15;;
11935;SDS011;6027;48.576;9.180;2022-11-15T14:26:10;8.30;;;6.30;;
11935;SDS011;6027;48.576;9.180;2022-11-15T14:28:56;6.13;;;5.47;;
11935;SDS011;6027;48.576;9.180;2022-11-15T14:31:22;9.07;;;5.50;;
11935;SDS011;6027;48.576;9.180;2022-11-15T14:33:47;5.68;;;4.80;;
11935;SDS011;6027;48.576;9.180;2022-11-15T14:36:17;8.45;;;4.78;;
11935;SDS011;6027;48.576;9.180;2022-11-15T14:38:45;8.63;;;4.40;;
11935;SDS011;6027;48.576;9.180;2022-11-15T14:41:17;6.13;;;4.10;;
11935;SDS011;6027;48.576;9.180;2022-11-15T14:43:50;6.05;;;4.55;;
11935;SDS011;6027;48.576;9.180;2022-11-15T14:46:16;6.00;;;4.72;;
11935;SDS011;6027;48.576;9.180;2022-11-15T14:48:42;6.53;;;4.53;;
11935;SDS011;6027;48.576;9.180;2022-11-15T14:51:12;5.93;;;4.53;;
11935;SDS011;6027;48.576;9.180;2022-11-15T14:53:40;8.45;;;7.55;;
11935;SDS011;6027;48.576;9.180;2022-11-15T14:56:06;8.90;;;7.20;;
11935;SDS011;6027;48.576;9.180;2022-11-15T14:58:32;10.32;;;8.60;;
11935;SDS011;6027;48.576;9.180;2022-11-15T15:00:58;10.02;;;6.93;;
11935;SDS011;6027;48.576;9.180;2022-11-15T15:03:23;8.30;;;6.47;;
11935;SDS011;6027;48.576;9.180;2022-11-15T15:05:49;9.95;;;7.20;;
11935;SDS011;6027;48.576;9.180;2022-11-15T15:08:14;9.00;;;6.82;;
11935;SDS011;6027;48.576;9.180;2022-11-15T15:10:43;7.90;;;6.60;;
11935;SDS011;6027;48.576;9.180;2022-11-15T15:13:20;8.23;;;6.15;;
11935;SDS011;6027;48.576;9.180;2022-11-15T15:15:47;16.60;;;10.75;;
11935;SDS011;6027;48.576;9.180;2022-11-15T15:18:14;11.48;;;7.20;;
11935;SDS011;6027;48.576;9.180;2022-11-15T15:20:41;9.57;;;6.20;;
11935;SDS011;6027;48.576;9.180;2022-11-15T15:23:15;8.68;;;6.95;;
11935;SDS011;6027;48.576;9.180;2022-11-15T15:25:42;9.98;;;7.93;;
11935;SDS011;6027;48.576;9.180;2022-11-15T15:28:08;9.80;;;7.13;;
11935;SDS011;6027;48.576;9.180;2022-11-15T15:30:34;10.55;;;7.72;;
11935;SDS011;6027;48.576;9.180;2022-11-15T15:32:59;10.95;;;8.75;;
11935;SDS011;6027;48.576;9.180;2022-11-15T15:35:27;10.13;;;8.00;;
11935;SDS011;6027;48.576;9.180;2022-11-15T15:37:55;12.95;;;7.95;;
11935;SDS011;6027;48.576;9.180;2022-11-15T15:40:22;11.30;;;7.68;;
11935;SDS011;6027;48.576;9.180;2022-11-15T15:42:49;12.45;;;8.30;;
11935;SDS011;6027;48.576;9.180;2022-11-15T15:45:15;12.35;;;8.02;;
11935;SDS011;6027;48.576;9.180;2022-11-15T15:47:42;11.52;;;8.15;;
11935;SDS011;6027;48.576;9.180;2022-11-15T15:52:48;9.95;;;8.25;;
11935;SDS011;6027;48.576;9.180;2022-11-15T15:55:14;9.25;;;8.18;;
11935;SDS011;6027;48.576;9.180;2022-11-15T15:57:40;8.88;;;7.95;;
11935;SDS011;6027;48.576;9.180;2022-11-15T16:00:05;9.20;;;8.27;;
11935;SDS011;6027;48.576;9.180;2022-11-15T16:02:31;12.82;;;9.23;;
11935;SDS011;6027;48.576;9.180;2022-11-15T16:04:57;15.98;;;13.20;;
11935;SDS011;6027;48.576;9.180;2022-11-15T16:07:22;13.82;;;11.05;;
11935;SDS011;6027;48.576;9.180;2022-11-15T16:09:53;17.30;;;15.18;;
11935;SDS011;6027;48.576;9.180;2022-11-15T16:12:25;14.32;;;10.45;;
11935;SDS011;6027;48.576;9.180;2022-11-15T16:14:51;14.10;;;10.73;;
11935;SDS011;6027;48.576;9.180;2022-11-15T16:17:17;12.05;;;10.35;;
11935;SDS011;6027;48.576;9.180;2022-11-15T16:19:44;16.35;;;10.45;;
11935;SDS011;6027;48.576;9.180;2022-11-15T16:22:10;13.15;;;10.55;;
11935;SDS011;6027;48.576;9.180;2022-11-15T16:24:36;19.35;;;11.57;;
11935;SDS011;6027;48.576;9.180;2022-11-15T16:27:01;14.15;;;11.50;;
11935;SDS011;6027;48.576;9.180;2022-11-15T16:29:27;12.85;;;10.85;;
11935;SDS011;6027;48.576;9.180;2022-11-15T16:31:53;13.10;;;10.73;;
11935;SDS011;6027;48.576;9.180;2022-11-15T16:34:19;10.98;;;9.25;;
11935;SDS011;6027;48.576;9.180;2022-11-15T16:36:44;13.52;;;9.98;;
11935;SDS011;6027;48.576;9.180;2022-11-15T16:39:13;16.23;;;9.23;;
11935;SDS011;6027;48.576;9.180;2022-11-15T16:41:40;11.70;;;10.50;;
11935;SDS011;6027;48.576;9.180;2022-11-15T16:44:08;10.25;;;8.43;;
11935;SDS011;6027;48.576;9.180;2022-11-15T16:46:33;9.00;;;7.63;;
11935;SDS011;6027;48.576;9.180;2022-11-15T16:48:59;11.13;;;8.18;;
11935;SDS011;6027;48.576;9.180;2022-11-15T16:51:26;12.07;;;8.15;;
11935;SDS011;6027;48.576;9.180;2022-11-15T16:53:52;9.48;;;8.10;;
11935;SDS011;6027;48.576;9.180;2022-11-15T16:56:25;10.27;;;8.40;;
11935;SDS011;6027;48.576;9.180;2022-11-15T16:58:52;9.15;;;7.65;;
11935;SDS011;6027;48.576;9.180;2022-11-15T17:01:23;11.20;;;9.40;;
11935;SDS011;6027;48.576;9.180;2022-11-15T17:03:50;14.38;;;10.63;;
11935;SDS011;6027;48.576;9.180;2022-11-15T17:06:16;12.10;;;10.77;;
11935;SDS011;6027;48.576;9.180;2022-11-15T17:08:43;10.38;;;9.30;;